createdAt,value
2023-04-11T00:00:13.210Z,47.49
2023-04-11T00:02:39.914Z,47.54
2023-04-11T00:05:07.907Z,47.60
2023-04-11T00:07:34.422Z,47.43
2023-04-11T00:10:00.974Z,47.50
2023-04-11T00:12:28.735Z,47.57
2023-04-11T00:14:55.245Z,47.51
2023-04-11T00:17:21.972Z,47.54
2023-04-11T00:19:48.407Z,47.39
2023-04-11T00:22:14.990Z,47.45
2023-04-11T00:24:41.632Z,47.86
2023-04-11T00:27:08.131Z,47.43
2023-04-11T00:29:35.892Z,47.42
2023-04-11T00:32:02.528Z,47.44
2023-04-11T00:34:29.462Z,47.45
2023-04-11T00:36:56.086Z,47.31
2023-04-11T00:39:22.665Z,47.48
2023-04-11T00:41:49.125Z,47.31
2023-04-11T00:44:15.573Z,47.31
2023-04-11T00:46:46.310Z,47.35
2023-04-11T00:49:13.372Z,47.47
2023-04-11T00:51:39.971Z,47.34
2023-04-11T00:54:06.636Z,47.28
2023-04-11T00:56:33.140Z,47.28
2023-04-11T00:58:59.591Z,47.27
2023-04-11T01:01:26.131Z,47.05
2023-04-11T01:03:54.252Z,47.42
2023-04-11T01:06:22.016Z,47.19
2023-04-11T01:08:49.975Z,47.29
2023-04-11T01:11:17.466Z,47.25
2023-04-11T01:13:44.088Z,47.36
2023-04-11T01:16:11.029Z,47.14
2023-04-11T01:18:37.629Z,47.26
2023-04-11T01:21:05.753Z,47.14
2023-04-11T01:23:33.606Z,47.29
2023-04-11T01:26:00.116Z,47.24
2023-04-11T01:28:26.589Z,47.23
2023-04-11T01:30:53.193Z,47.14
2023-04-11T01:33:19.773Z,47.20
2023-04-11T01:35:46.317Z,47.29
2023-04-11T01:38:12.808Z,47.21
2023-04-11T01:40:41.950Z,47.09
2023-04-11T01:43:08.517Z,47.31
2023-04-11T01:45:35.608Z,46.98
2023-04-11T01:48:06.543Z,47.09
2023-04-11T01:50:33.129Z,47.03
2023-04-11T01:52:59.601Z,47.03
2023-04-11T01:55:26.209Z,47.02
2023-04-11T01:57:53.970Z,47.10
2023-04-11T02:00:21.167Z,47.16
2023-04-11T02:02:47.808Z,47.10
2023-04-11T02:05:14.401Z,47.17
2023-04-11T02:07:40.855Z,47.24
2023-04-11T02:10:08.157Z,47.32
2023-04-11T02:12:34.819Z,47.10
2023-04-11T02:15:02.559Z,47.13
2023-04-11T02:17:29.113Z,47.39
2023-04-11T02:19:55.582Z,47.30
2023-04-11T02:22:22.041Z,47.09
2023-04-11T02:24:48.470Z,47.20
2023-04-11T02:27:14.914Z,47.23
2023-04-11T02:29:41.393Z,46.95
2023-04-11T02:32:09.357Z,47.33
2023-04-11T02:34:35.965Z,47.16
2023-04-11T02:37:02.410Z,47.30
2023-04-11T02:39:28.837Z,47.03
2023-04-11T02:41:55.256Z,47.09
2023-04-11T02:44:21.912Z,46.89
2023-04-11T02:46:48.441Z,46.85
2023-04-11T02:49:16.188Z,47.19
2023-04-11T02:51:42.717Z,46.85
2023-04-11T02:54:09.153Z,46.88
2023-04-11T02:56:35.624Z,46.86
2023-04-11T02:59:02.025Z,46.91
2023-04-11T03:01:28.516Z,46.84
2023-04-11T03:03:55.066Z,46.74
2023-04-11T03:06:22.895Z,46.71
2023-04-11T03:08:49.395Z,46.88
2023-04-11T03:11:16.000Z,46.75
2023-04-11T03:13:43.175Z,46.49
2023-04-11T03:16:10.004Z,46.59
2023-04-11T03:18:36.469Z,46.49
2023-04-11T03:21:03.014Z,46.48
2023-04-11T03:23:30.793Z,46.48
2023-04-11T03:25:57.243Z,46.27
2023-04-11T03:28:23.835Z,46.45
2023-04-11T03:30:50.310Z,46.44
2023-04-11T03:33:16.738Z,46.45
2023-04-11T03:35:43.305Z,46.26
2023-04-11T03:38:09.773Z,46.35
2023-04-11T03:40:37.551Z,46.32
2023-04-11T03:43:04.952Z,46.15
2023-04-11T03:45:31.544Z,46.32
2023-04-11T03:47:58.336Z,46.30
2023-04-11T03:50:24.928Z,46.32
2023-04-11T03:52:51.348Z,46.03
2023-04-11T03:55:17.842Z,46.32
2023-04-11T03:57:45.607Z,46.16
2023-04-11T04:00:12.733Z,46.33
2023-04-11T04:02:39.352Z,45.89
2023-04-11T04:05:06.476Z,46.08
2023-04-11T04:07:33.099Z,46.09
2023-04-11T04:09:59.547Z,45.94
2023-04-11T04:12:25.975Z,46.05
2023-04-11T04:14:53.768Z,45.80
2023-04-11T04:17:20.338Z,45.88
2023-04-11T04:19:47.000Z,45.91
2023-04-11T04:22:13.480Z,45.62
2023-04-11T04:24:40.657Z,45.68
2023-04-11T04:27:07.137Z,45.68
2023-04-11T04:29:33.587Z,45.81
2023-04-11T04:32:01.987Z,45.67
2023-04-11T04:34:28.552Z,45.78
2023-04-11T04:36:55.050Z,45.74
2023-04-11T04:39:21.604Z,45.75
2023-04-11T04:41:49.309Z,45.81
2023-04-11T04:44:15.868Z,45.78
2023-04-11T04:46:42.311Z,45.61
2023-04-11T04:49:10.286Z,45.64
2023-04-11T04:51:37.379Z,45.57
2023-04-11T04:54:03.956Z,45.52
2023-04-11T04:56:31.175Z,45.50
2023-04-11T04:58:57.960Z,45.65
2023-04-11T05:01:24.469Z,45.53
2023-04-11T05:03:51.142Z,45.66
2023-04-11T05:06:19.910Z,46.21
2023-04-11T05:08:46.456Z,49.57
2023-04-11T05:11:12.941Z,49.42
2023-04-11T05:13:39.407Z,48.03
2023-04-11T05:16:06.663Z,47.44
2023-04-11T05:18:33.099Z,47.31
2023-04-11T05:21:01.301Z,47.36
2023-04-11T05:23:29.220Z,47.18
2023-04-11T05:25:55.622Z,47.03
2023-04-11T05:28:22.164Z,46.94
2023-04-11T05:30:48.646Z,46.96
2023-04-11T05:33:15.126Z,46.63
2023-04-11T05:35:41.855Z,46.68
2023-04-11T05:38:08.485Z,46.59
2023-04-11T05:40:36.306Z,46.27
2023-04-11T05:43:02.917Z,46.58
2023-04-11T05:45:29.603Z,46.52
2023-04-11T05:47:56.082Z,46.27
2023-04-11T05:50:22.784Z,46.24
2023-04-11T05:52:49.245Z,45.96
2023-04-11T05:55:16.160Z,46.06
2023-04-11T05:57:43.942Z,46.08
2023-04-11T06:00:11.339Z,45.89
2023-04-11T06:02:37.850Z,45.99
2023-04-11T06:05:04.989Z,45.92
2023-04-11T06:07:31.523Z,46.09
2023-04-11T06:09:58.243Z,45.84
2023-04-11T06:12:24.904Z,45.91
2023-04-11T06:14:52.814Z,45.75
2023-04-11T06:17:19.349Z,45.81
2023-04-11T06:19:45.854Z,45.87
2023-04-11T06:22:12.304Z,45.82
2023-04-11T06:24:40.714Z,45.72
2023-04-11T06:27:07.983Z,45.76
2023-04-11T06:29:34.760Z,46.25
2023-04-11T06:32:02.586Z,47.04
2023-04-11T06:34:29.228Z,47.41
2023-04-11T06:36:55.959Z,47.77
2023-04-11T06:39:22.730Z,47.59
2023-04-11T06:41:49.301Z,47.63
2023-04-11T06:44:16.745Z,47.66
2023-04-11T06:46:43.619Z,47.55
2023-04-11T06:49:11.593Z,47.81
2023-04-11T06:51:38.033Z,47.89
2023-04-11T06:54:04.586Z,47.63
2023-04-11T06:56:31.020Z,47.81
2023-04-11T06:58:57.749Z,48.06
2023-04-11T07:01:24.276Z,48.18
2023-04-11T07:03:51.032Z,48.22
2023-04-11T07:06:19.523Z,48.33
2023-04-11T07:08:45.992Z,48.16
2023-04-11T07:11:12.482Z,48.20
2023-04-11T07:13:38.913Z,46.89
2023-04-11T07:16:05.951Z,46.93
2023-04-11T07:18:32.489Z,46.35
2023-04-11T07:20:58.968Z,46.18
2023-04-11T07:23:26.789Z,46.28
2023-04-11T07:25:53.271Z,46.06
2023-04-11T07:28:19.792Z,46.30
2023-04-11T07:30:46.457Z,46.11
2023-04-11T07:33:12.972Z,45.93
2023-04-11T07:35:39.496Z,45.96
2023-04-11T07:38:06.001Z,45.99
2023-04-11T07:40:33.777Z,45.98
2023-04-11T07:43:00.226Z,46.00
2023-04-11T07:45:26.754Z,46.24
2023-04-11T07:47:53.220Z,46.08
2023-04-11T07:50:19.884Z,45.94
2023-04-11T07:52:46.333Z,45.88
2023-04-11T07:55:13.559Z,46.01
2023-04-11T07:57:41.362Z,46.13
2023-04-11T08:00:10.190Z,45.86
2023-04-11T08:02:38.151Z,46.15
2023-04-11T08:05:05.376Z,45.97
2023-04-11T08:07:31.917Z,45.95
2023-04-11T08:09:58.375Z,46.06
2023-04-11T08:12:25.000Z,46.22
2023-04-11T08:14:52.920Z,45.96
2023-04-11T08:17:27.610Z,45.94
2023-04-11T08:19:55.125Z,46.02
2023-04-11T08:22:21.634Z,46.24
2023-04-11T08:24:48.248Z,46.07
2023-04-11T08:27:14.821Z,46.95
2023-04-11T08:29:41.311Z,46.39
2023-04-11T08:32:09.072Z,46.98
2023-04-11T08:34:35.757Z,46.54
2023-04-11T08:37:02.254Z,46.71
2023-04-11T08:39:29.010Z,46.56
2023-04-11T08:41:56.754Z,46.25
2023-04-11T08:44:23.393Z,46.18
2023-04-11T08:46:49.873Z,46.30
2023-04-11T08:49:17.734Z,46.32
2023-04-11T08:51:45.645Z,46.21
2023-04-11T08:54:12.795Z,46.36
2023-04-11T08:56:41.377Z,46.46
2023-04-11T08:59:07.948Z,46.72
2023-04-11T09:01:34.616Z,46.44
2023-04-11T09:04:02.439Z,46.76
2023-04-11T09:06:31.675Z,46.73
2023-04-11T09:08:58.578Z,46.42
2023-04-11T09:11:25.285Z,46.52
2023-04-11T09:14:06.263Z,46.40
2023-04-11T09:16:33.413Z,46.45
2023-04-11T09:18:59.895Z,46.49
2023-04-11T09:21:26.744Z,46.39
2023-04-11T09:23:54.903Z,46.31
2023-04-11T09:26:26.792Z,46.07
2023-04-11T09:28:54.029Z,46.17
2023-04-11T09:31:21.821Z,46.46
2023-04-11T09:33:53.252Z,45.10
2023-04-11T09:36:22.071Z,44.37
2023-04-11T09:38:49.095Z,44.02
2023-04-11T09:41:29.757Z,45.33
2023-04-11T09:43:56.437Z,46.06
2023-04-11T09:46:23.344Z,45.40
2023-04-11T09:48:50.915Z,44.70
2023-04-11T09:53:40.445Z,45.69
2023-04-11T09:54:06.700Z,47.26
2023-04-11T09:56:35.195Z,47.85
2023-04-11T09:59:02.947Z,48.10
2023-04-11T10:01:29.484Z,47.52
2023-04-11T10:03:56.713Z,47.93
2023-04-11T10:06:30.986Z,47.99
2023-04-11T10:09:06.887Z,47.75
2023-04-11T10:11:35.040Z,48.02
2023-04-11T10:14:01.662Z,47.40
2023-04-11T10:16:28.199Z,45.13
2023-04-11T10:19:14.482Z,44.02
2023-04-11T10:21:41.022Z,43.65
2023-04-11T10:24:09.010Z,43.71
2023-04-11T10:26:47.400Z,44.17
2023-04-11T10:29:38.540Z,44.27
2023-04-11T10:32:08.765Z,43.62
2023-04-11T10:34:35.210Z,43.43
2023-04-11T10:37:02.749Z,43.62
2023-04-11T10:39:48.390Z,43.64
2023-04-11T10:42:25.658Z,43.83
2023-04-11T10:45:11.268Z,43.74
2023-04-11T10:47:39.358Z,45.21
2023-04-11T10:50:38.258Z,47.88
2023-04-11T10:53:06.221Z,47.34
2023-04-11T10:55:43.114Z,48.25
2023-04-11T10:58:11.038Z,48.19
2023-04-11T11:01:02.414Z,47.91
2023-04-11T11:03:30.948Z,47.71
2023-04-11T11:05:58.971Z,47.61
2023-04-11T11:08:27.372Z,47.33
2023-04-11T11:10:54.658Z,47.62
2023-04-11T11:13:22.942Z,47.01
2023-04-11T11:15:50.437Z,45.74
2023-04-11T11:18:18.158Z,44.83
2023-04-11T11:20:46.026Z,44.39
2023-04-11T11:23:12.535Z,43.92
2023-04-11T11:25:39.105Z,43.88
2023-04-11T11:28:07.275Z,43.69
2023-04-11T11:30:34.584Z,44.77
2023-04-11T11:33:14.860Z,45.23
2023-04-11T11:35:45.433Z,44.45
2023-04-11T11:38:13.458Z,44.14
2023-04-11T11:40:40.000Z,43.91
2023-04-11T11:43:07.542Z,43.70
2023-04-11T11:45:34.138Z,45.98
2023-04-11T11:48:00.722Z,46.84
2023-04-11T11:50:31.126Z,47.07
2023-04-11T11:52:59.615Z,46.50
2023-04-11T11:55:31.848Z,45.23
2023-04-11T11:58:00.665Z,44.48
2023-04-11T12:00:28.982Z,43.57
2023-04-11T12:02:56.639Z,44.32
2023-04-11T12:05:24.719Z,43.76
2023-04-11T12:07:54.250Z,43.32
2023-04-11T12:10:20.748Z,43.16
2023-04-11T12:12:53.684Z,43.00
2023-04-11T12:15:22.231Z,42.71
2023-04-11T12:17:49.278Z,44.02
2023-04-11T12:20:15.910Z,43.83
2023-04-11T12:22:42.640Z,43.39
2023-04-11T12:25:11.682Z,44.53
2023-04-11T12:27:39.992Z,43.58
2023-04-11T12:30:09.056Z,43.20
2023-04-11T12:32:36.675Z,42.79
2023-04-11T12:35:04.983Z,42.62
2023-04-11T12:37:32.027Z,42.59
2023-04-11T12:39:58.485Z,44.18
2023-04-11T12:42:27.455Z,43.18
2023-04-11T12:44:54.462Z,42.70
2023-04-11T12:47:22.457Z,42.56
2023-04-11T12:49:48.988Z,42.46
2023-04-11T12:52:15.442Z,42.45
2023-04-11T12:54:42.015Z,42.44
2023-04-11T12:57:08.630Z,42.29
2023-04-11T12:59:35.147Z,42.65
2023-04-11T13:02:01.993Z,42.74
2023-04-11T13:04:30.138Z,43.75
2023-04-11T13:06:56.736Z,43.33
2023-04-11T13:09:23.197Z,42.74
2023-04-11T13:11:49.635Z,42.78
2023-04-11T13:14:16.140Z,42.86
2023-04-11T13:16:42.652Z,42.65
2023-04-11T13:19:09.361Z,43.06
2023-04-11T13:21:37.113Z,43.03
2023-04-11T13:24:03.656Z,42.74
2023-04-11T13:26:30.210Z,42.92
2023-04-11T13:28:56.829Z,43.27
2023-04-11T13:31:23.395Z,43.85
2023-04-11T13:33:49.887Z,43.65
2023-04-11T13:36:16.368Z,43.53
2023-04-11T13:38:45.156Z,43.32
2023-04-11T13:41:13.158Z,43.17
2023-04-11T13:43:40.168Z,43.15
2023-04-11T13:46:06.787Z,43.08
2023-04-11T13:48:33.305Z,43.03
2023-04-11T13:50:59.911Z,42.83
2023-04-11T13:53:26.358Z,43.52
2023-04-11T13:55:55.266Z,44.11
2023-04-11T13:58:21.969Z,43.58
2023-04-11T14:00:48.415Z,43.15
2023-04-11T14:03:15.348Z,42.80
2023-04-11T14:05:41.934Z,43.08
2023-04-11T14:08:08.423Z,42.78
2023-04-11T14:10:34.896Z,42.88
2023-04-11T14:13:02.740Z,42.86
2023-04-11T14:15:29.337Z,43.20
2023-04-11T14:17:55.873Z,43.67
2023-04-11T14:20:23.619Z,44.39
2023-04-11T14:22:50.291Z,43.70
2023-04-11T14:25:16.796Z,45.02
2023-04-11T14:27:43.641Z,46.53
2023-04-11T14:30:12.772Z,45.20
2023-04-11T14:32:39.784Z,44.25
2023-04-11T14:35:07.208Z,43.64
2023-04-11T14:37:33.789Z,43.27
2023-04-11T14:40:00.561Z,43.23
2023-04-11T14:42:27.083Z,43.60
2023-04-11T14:44:53.549Z,44.57
2023-04-11T14:47:21.372Z,44.05
2023-04-11T14:49:47.884Z,43.60
2023-04-11T14:52:14.412Z,43.52
2023-04-11T14:54:41.069Z,43.35
2023-04-11T14:57:07.609Z,43.28
2023-04-11T14:59:34.018Z,43.42
2023-04-11T15:02:00.954Z,43.41
2023-04-11T15:04:29.011Z,43.36
2023-04-11T15:06:55.623Z,43.49
2023-04-11T15:09:22.101Z,44.41
2023-04-11T15:11:48.653Z,44.40
2023-04-11T15:14:15.244Z,44.02
2023-04-11T15:16:41.758Z,43.72
2023-04-11T15:19:08.189Z,43.71
2023-04-11T15:21:35.950Z,43.82
2023-04-11T15:24:02.950Z,43.63
2023-04-11T15:26:29.579Z,43.78
2023-04-11T15:28:56.064Z,43.65
2023-04-11T15:31:24.813Z,43.72
2023-04-11T15:33:51.581Z,44.75
2023-04-11T15:36:18.187Z,44.52
2023-04-11T15:38:45.920Z,44.02
2023-04-11T15:41:12.436Z,43.85
2023-04-11T15:43:39.228Z,43.64
2023-04-11T15:46:06.431Z,43.90
2023-04-11T15:48:33.066Z,44.02
2023-04-11T15:50:59.689Z,43.89
2023-04-11T15:53:26.118Z,43.79
2023-04-11T15:55:53.913Z,43.81
2023-04-11T15:58:20.513Z,44.31
2023-04-11T16:00:46.996Z,44.81
2023-04-11T16:03:13.742Z,44.45
2023-04-11T16:05:40.704Z,44.16
2023-04-11T16:08:07.592Z,43.98
2023-04-11T16:10:34.245Z,44.25
2023-04-11T16:13:02.431Z,44.07
2023-04-11T16:15:28.924Z,44.06
2023-04-11T16:17:55.684Z,43.99
2023-04-11T16:20:22.237Z,43.78
2023-04-11T16:22:48.723Z,44.54
2023-04-11T16:25:15.208Z,44.73
2023-04-11T16:27:41.701Z,44.52
2023-04-11T16:30:10.126Z,44.19
2023-04-11T16:32:36.739Z,44.20
2023-04-11T16:35:03.295Z,44.09
2023-04-11T16:37:29.714Z,44.21
2023-04-11T16:39:56.187Z,44.06
2023-04-11T16:42:22.628Z,43.93
2023-04-11T16:44:49.120Z,44.11
2023-04-11T16:47:16.958Z,45.05
2023-04-11T16:49:45.001Z,44.68
2023-04-11T16:52:12.203Z,44.26
2023-04-11T16:54:38.655Z,44.29
2023-04-11T16:57:05.088Z,44.33
2023-04-11T16:59:31.571Z,44.15
2023-04-11T17:01:58.182Z,44.14
2023-04-11T17:04:26.286Z,44.16
2023-04-11T17:06:52.846Z,44.20
2023-04-11T17:09:19.271Z,44.52
2023-04-11T17:11:45.698Z,45.03
2023-04-11T17:14:12.180Z,44.73
2023-04-11T17:16:38.736Z,44.38
2023-04-11T17:19:05.288Z,44.34
2023-04-11T17:21:33.207Z,44.38
2023-04-11T17:23:59.835Z,44.40
2023-04-11T17:26:26.473Z,44.12
2023-04-11T17:28:52.900Z,44.83
2023-04-11T17:31:20.713Z,44.52
2023-04-11T17:33:47.315Z,44.38
2023-04-11T17:36:14.074Z,44.89
2023-04-11T17:38:42.008Z,44.73
2023-04-11T17:41:14.309Z,44.56
2023-04-11T17:43:42.095Z,44.30
2023-04-11T17:46:08.682Z,44.48
2023-04-11T17:48:35.218Z,44.46
2023-04-11T17:51:04.231Z,44.40
2023-04-11T17:53:30.825Z,44.40
2023-04-11T17:56:02.625Z,44.72
2023-04-11T17:58:29.071Z,44.43
2023-04-11T18:00:57.109Z,44.93
2023-04-11T18:03:24.400Z,45.11
2023-04-11T18:05:51.399Z,44.68
2023-04-11T18:08:17.834Z,44.49
2023-04-11T18:10:44.435Z,44.79
2023-04-11T18:13:12.216Z,44.52
2023-04-11T18:15:38.680Z,44.56
2023-04-11T18:18:05.329Z,44.52
2023-04-11T18:20:31.866Z,44.38
2023-04-11T18:22:58.297Z,44.41
2023-04-11T18:25:24.776Z,44.93
2023-04-11T18:27:51.224Z,45.18
2023-04-11T18:30:19.144Z,44.68
2023-04-11T18:32:49.664Z,44.69
2023-04-11T18:35:16.889Z,44.73
2023-04-11T18:37:43.458Z,44.55
2023-04-11T18:40:12.020Z,44.62
2023-04-11T18:42:39.043Z,44.64
2023-04-11T18:45:06.937Z,44.54
2023-04-11T18:47:35.428Z,44.51
2023-04-11T18:50:02.249Z,44.89
2023-04-11T18:52:29.357Z,45.11
2023-04-11T18:54:55.846Z,44.92
2023-04-11T18:57:22.531Z,44.50
2023-04-11T18:59:50.484Z,44.52
2023-04-11T19:02:17.746Z,44.44
2023-04-11T19:04:46.081Z,44.63
2023-04-11T19:07:12.699Z,44.56
2023-04-11T19:09:39.282Z,44.45
2023-04-11T19:12:06.111Z,44.39
2023-04-11T19:14:32.949Z,44.77
2023-04-11T19:16:59.855Z,45.12
2023-04-11T19:19:26.516Z,44.86
2023-04-11T19:21:54.364Z,44.76
2023-04-11T19:24:20.875Z,44.78
2023-04-11T19:26:47.329Z,44.52
2023-04-11T19:29:13.843Z,44.48
2023-04-11T19:31:40.362Z,44.60
2023-04-11T19:34:06.844Z,44.58
2023-04-11T19:36:33.434Z,44.59
2023-04-11T19:39:01.313Z,44.66
2023-04-11T19:41:27.993Z,45.17
2023-04-11T19:43:54.498Z,44.87
2023-04-11T19:46:21.120Z,44.90
2023-04-11T19:48:47.676Z,44.85
2023-04-11T19:51:14.216Z,44.68
2023-04-11T19:53:40.667Z,44.72
2023-04-11T19:56:08.780Z,44.71
2023-04-11T19:58:35.541Z,44.73
2023-04-11T20:01:02.141Z,44.73
2023-04-11T20:03:28.803Z,45.19
2023-04-11T20:05:55.419Z,45.60
2023-04-11T20:08:21.998Z,45.17
2023-04-11T20:10:48.483Z,45.08
2023-04-11T20:13:16.588Z,44.99
2023-04-11T20:15:43.210Z,44.91
2023-04-11T20:18:09.917Z,44.87
2023-04-11T20:20:36.762Z,44.74
2023-04-11T20:23:03.259Z,44.89
2023-04-11T20:25:29.732Z,44.72
2023-04-11T20:27:56.204Z,44.99
2023-04-11T20:30:23.995Z,45.64
2023-04-11T20:32:50.590Z,45.16
2023-04-11T20:35:17.235Z,45.13
2023-04-11T20:37:43.926Z,45.20
2023-04-11T20:40:10.837Z,45.09
2023-04-11T20:42:37.929Z,45.10
2023-04-11T20:45:05.104Z,45.01
2023-04-11T20:47:33.064Z,44.97
2023-04-11T20:49:59.654Z,45.08
2023-04-11T20:52:26.156Z,45.57
2023-04-11T20:54:52.588Z,45.68
2023-04-11T20:57:19.006Z,45.40
2023-04-11T20:59:45.463Z,45.22
2023-04-11T21:02:12.039Z,45.17
2023-04-11T21:04:39.909Z,45.15
2023-04-11T21:07:06.391Z,45.33
2023-04-11T21:09:32.870Z,45.20
2023-04-11T21:11:59.392Z,45.16
2023-04-11T21:14:25.889Z,45.10
2023-04-11T21:16:52.457Z,45.41
2023-04-11T21:19:18.910Z,45.90
2023-04-11T21:21:46.742Z,45.65
2023-04-11T21:24:13.240Z,45.34
2023-04-11T21:26:39.647Z,45.46
2023-04-11T21:29:06.133Z,45.51
2023-04-11T21:31:32.580Z,45.39
2023-04-11T21:33:59.353Z,45.51
2023-04-11T21:36:26.098Z,45.40
2023-04-11T21:38:53.868Z,45.47
2023-04-11T21:41:20.334Z,45.52
2023-04-11T21:43:46.820Z,46.17
2023-04-11T21:46:13.295Z,46.07
2023-04-11T21:48:39.913Z,45.72
2023-04-11T21:51:06.828Z,45.81
2023-04-11T21:53:33.338Z,45.71
2023-04-11T21:56:01.131Z,45.74
2023-04-11T21:58:29.902Z,45.38
2023-04-11T22:00:56.600Z,45.60
2023-04-11T22:03:23.770Z,45.49
2023-04-11T22:05:50.845Z,45.56
2023-04-11T22:08:17.410Z,46.45
2023-04-11T22:10:47.739Z,46.38
2023-04-11T22:13:17.740Z,45.89
2023-04-11T22:15:45.063Z,46.09
2023-04-11T22:18:12.026Z,46.04
2023-04-11T22:20:40.084Z,45.66
2023-04-11T22:23:07.423Z,45.27
2023-04-11T22:25:33.934Z,45.01
2023-04-11T22:28:00.454Z,45.31
2023-04-11T22:30:28.203Z,45.32
2023-04-11T22:32:54.781Z,45.48
2023-04-11T22:35:21.414Z,46.10
2023-04-11T22:37:47.935Z,45.85
2023-04-11T22:40:14.715Z,45.53
2023-04-11T22:42:41.229Z,45.62
2023-04-11T22:45:08.537Z,45.54
2023-04-11T22:47:36.384Z,45.58
2023-04-11T22:50:02.923Z,45.47
2023-04-11T22:52:29.488Z,45.46
2023-04-11T22:54:55.945Z,45.29
2023-04-11T22:57:22.483Z,45.70
2023-04-11T22:59:48.897Z,45.87
2023-04-11T23:02:15.401Z,45.68
2023-04-11T23:04:43.213Z,45.40
2023-04-11T23:07:09.633Z,45.36
2023-04-11T23:09:36.066Z,45.33
2023-04-11T23:12:02.570Z,45.04
2023-04-11T23:14:29.029Z,45.19
2023-04-11T23:16:55.536Z,45.28
2023-04-11T23:19:22.025Z,45.24
2023-04-11T23:21:49.774Z,45.14
2023-04-11T23:24:16.349Z,45.62
2023-04-11T23:26:42.812Z,45.67
2023-04-11T23:29:09.344Z,45.25
2023-04-11T23:31:35.792Z,45.26
2023-04-11T23:34:02.315Z,45.17
2023-04-11T23:36:29.373Z,45.12
2023-04-11T23:38:57.144Z,44.97
2023-04-11T23:41:23.669Z,44.87
2023-04-11T23:43:50.274Z,44.84
2023-04-11T23:46:17.153Z,44.87
2023-04-11T23:48:43.692Z,44.76
2023-04-11T23:51:10.181Z,45.40
2023-04-11T23:53:36.622Z,45.33
2023-04-11T23:56:05.025Z,45.15
2023-04-11T23:58:31.496Z,44.92
